createdAt,value
2022-12-15T00:01:41.710Z,133.93
2022-12-15T00:04:09.101Z,160.73
2022-12-15T00:06:36.850Z,125.80
2022-12-15T00:09:04.295Z,145.68
2022-12-15T00:11:31.948Z,158.48
2022-12-15T00:13:59.289Z,150.13
2022-12-15T00:16:27.023Z,139.00
2022-12-15T00:18:54.560Z,146.75
2022-12-15T00:21:22.116Z,157.63
2022-12-15T00:27:21.980Z,162.98
2022-12-15T00:29:49.717Z,140.02
2022-12-15T00:32:17.118Z,164.02
2022-12-15T00:34:44.763Z,145.25
2022-12-15T00:37:12.125Z,148.65
2022-12-15T00:39:39.830Z,150.68
2022-12-15T00:42:07.945Z,148.05
2022-12-15T00:44:35.581Z,127.47
2022-12-15T00:47:03.425Z,128.00
2022-12-15T00:49:31.610Z,119.88
2022-12-15T00:51:58.962Z,128.15
2022-12-15T00:54:26.689Z,122.07
2022-12-15T00:56:54.144Z,112.43
2022-12-15T00:59:21.789Z,119.68
2022-12-15T01:01:49.613Z,118.40
2022-12-15T01:04:17.597Z,109.05
2022-12-15T01:06:44.937Z,101.93
2022-12-15T01:09:12.941Z,118.68
2022-12-15T01:11:40.495Z,114.18
2022-12-15T01:14:08.152Z,111.93
2022-12-15T01:16:35.701Z,107.90
2022-12-15T01:19:03.415Z,114.20
2022-12-15T01:21:31.396Z,97.47
2022-12-15T01:23:59.122Z,103.50
2022-12-15T01:26:26.445Z,107.45
2022-12-15T01:28:54.129Z,113.10
2022-12-15T01:31:21.611Z,107.93
2022-12-15T01:33:52.925Z,105.82
2022-12-15T01:36:21.466Z,99.93
2022-12-15T01:38:53.899Z,107.53
2022-12-15T01:41:22.261Z,97.05
2022-12-15T01:43:50.080Z,110.88
2022-12-15T01:46:19.207Z,107.63
2022-12-15T01:48:48.265Z,112.18
2022-12-15T01:51:21.723Z,102.70
2022-12-15T01:53:50.244Z,106.15
2022-12-15T01:56:18.078Z,96.72
2022-12-15T01:58:48.766Z,103.55
2022-12-15T02:01:16.270Z,108.78
2022-12-15T02:03:44.887Z,97.13
2022-12-15T02:06:13.105Z,107.40
2022-12-15T02:08:43.087Z,99.00
2022-12-15T02:11:27.142Z,102.93
2022-12-15T02:14:01.876Z,93.75
2022-12-15T02:16:29.263Z,102.43
2022-12-15T02:19:07.542Z,89.28
2022-12-15T02:21:55.232Z,83.53
2022-12-15T02:24:25.658Z,80.68
2022-12-15T02:27:01.962Z,83.10
2022-12-15T02:29:47.734Z,84.53
2022-12-15T02:32:16.939Z,79.38
2022-12-15T02:35:05.998Z,86.88
2022-12-15T02:37:34.891Z,91.65
2022-12-15T02:40:03.633Z,89.93
2022-12-15T02:42:35.076Z,87.35
2022-12-15T02:45:02.690Z,86.00
2022-12-15T02:47:41.402Z,83.60
2022-12-15T02:50:29.763Z,94.10
2022-12-15T02:53:12.259Z,75.60
2022-12-15T02:55:42.692Z,83.70
2022-12-15T02:58:10.030Z,74.40
2022-12-15T03:00:39.571Z,81.32
2022-12-15T03:03:07.571Z,72.18
2022-12-15T03:05:35.599Z,73.35
2022-12-15T03:08:02.979Z,81.53
2022-12-15T03:10:30.654Z,78.93
2022-12-15T03:12:58.004Z,88.75
2022-12-15T03:15:31.719Z,80.80
2022-12-15T03:18:02.429Z,69.47
2022-12-15T03:20:44.008Z,75.70
2022-12-15T03:23:11.380Z,78.95
2022-12-15T03:25:39.012Z,72.60
2022-12-15T03:28:06.407Z,72.20
2022-12-15T03:30:34.092Z,77.80
2022-12-15T03:33:01.431Z,73.03
2022-12-15T03:35:30.404Z,72.43
2022-12-15T03:37:57.787Z,78.63
2022-12-15T03:40:25.428Z,70.97
2022-12-15T03:42:52.790Z,66.35
2022-12-15T03:45:22.301Z,65.25
2022-12-15T03:47:50.262Z,68.88
2022-12-15T03:50:20.004Z,67.25
2022-12-15T03:52:51.307Z,66.68
2022-12-15T03:55:19.135Z,66.38
2022-12-15T03:57:46.532Z,68.63
2022-12-15T04:00:14.500Z,64.95
2022-12-15T04:02:42.764Z,67.95
2022-12-15T04:05:36.576Z,59.97
2022-12-15T04:08:04.193Z,57.13
2022-12-15T04:10:34.805Z,65.50
2022-12-15T04:13:04.175Z,65.57
2022-12-15T04:15:32.004Z,54.50
2022-12-15T04:18:00.919Z,61.55
2022-12-15T04:20:29.044Z,58.25
2022-12-15T04:22:56.435Z,63.67
2022-12-15T04:25:24.962Z,48.67
2022-12-15T04:27:55.864Z,51.30
2022-12-15T04:30:26.413Z,51.75
2022-12-15T04:32:54.068Z,45.97
2022-12-15T04:35:21.693Z,45.67
2022-12-15T04:37:49.006Z,43.28
2022-12-15T04:40:16.589Z,50.38
2022-12-15T04:42:46.562Z,49.58
2022-12-15T04:45:20.329Z,44.08
2022-12-15T04:47:48.259Z,46.83
2022-12-15T04:50:16.216Z,43.28
2022-12-15T04:52:43.585Z,45.15
2022-12-15T04:55:11.206Z,48.10
2022-12-15T04:57:38.649Z,42.65
2022-12-15T05:00:06.492Z,37.97
2022-12-15T05:02:33.969Z,41.30
2022-12-15T05:05:01.700Z,39.00
2022-12-15T05:07:30.204Z,42.95
2022-12-15T05:10:02.817Z,45.03
2022-12-15T05:12:30.652Z,45.88
2022-12-15T05:14:58.318Z,44.90
2022-12-15T05:17:25.676Z,38.63
2022-12-15T05:19:53.288Z,43.08
2022-12-15T05:22:20.611Z,48.72
2022-12-15T05:24:48.278Z,44.97
2022-12-15T05:27:15.677Z,44.08
2022-12-15T05:29:43.339Z,42.72
2022-12-15T05:32:10.727Z,40.40
2022-12-15T05:34:38.448Z,39.33
2022-12-15T05:37:05.814Z,40.90
2022-12-15T05:39:33.455Z,40.67
2022-12-15T05:42:00.872Z,40.42
2022-12-15T05:44:28.772Z,39.83
2022-12-15T05:46:56.236Z,42.13
2022-12-15T05:49:23.847Z,41.50
2022-12-15T05:51:51.202Z,33.22
2022-12-15T05:54:19.884Z,37.17
2022-12-15T05:56:50.361Z,41.47
2022-12-15T05:59:18.605Z,35.83
2022-12-15T06:01:46.101Z,38.83
2022-12-15T06:04:14.167Z,35.95
2022-12-15T06:06:41.609Z,41.00
2022-12-15T06:09:09.565Z,35.85
2022-12-15T06:11:37.139Z,34.65
2022-12-15T06:14:05.098Z,40.33
2022-12-15T06:16:32.565Z,35.22
2022-12-15T06:19:00.964Z,33.40
2022-12-15T06:21:33.022Z,35.70
2022-12-15T06:26:37.809Z,41.88
2022-12-15T06:29:07.270Z,38.55
2022-12-15T06:31:35.148Z,38.13
2022-12-15T06:34:06.360Z,40.10
2022-12-15T06:36:34.013Z,44.17
2022-12-15T06:39:02.590Z,35.58
2022-12-15T06:41:30.379Z,32.17
2022-12-15T06:44:00.198Z,29.33
2022-12-15T06:46:28.929Z,29.55
2022-12-15T06:48:57.128Z,28.52
2022-12-15T06:51:24.803Z,31.80
2022-12-15T06:53:52.841Z,28.33
2022-12-15T06:56:40.500Z,33.75
2022-12-15T06:59:08.167Z,33.22
2022-12-15T07:04:54.417Z,36.35
2022-12-15T07:07:21.733Z,39.10
2022-12-15T07:09:51.466Z,46.83
2022-12-15T07:12:18.785Z,43.05
2022-12-15T07:14:50.124Z,40.08
2022-12-15T07:17:20.614Z,38.15
2022-12-15T07:19:48.366Z,33.78
2022-12-15T07:22:15.713Z,32.10
2022-12-15T07:24:43.309Z,30.45
2022-12-15T07:27:10.759Z,27.15
2022-12-15T07:29:38.442Z,28.17
2022-12-15T07:32:17.513Z,27.58
2022-12-15T07:34:45.501Z,29.42
2022-12-15T07:37:15.664Z,25.92
2022-12-15T07:39:43.394Z,31.92
2022-12-15T07:42:10.849Z,28.40
2022-12-15T07:44:38.817Z,32.25
2022-12-15T07:47:06.470Z,29.33
2022-12-15T07:49:34.215Z,23.27
2022-12-15T07:52:01.577Z,28.10
2022-12-15T07:54:29.257Z,27.17
2022-12-15T07:56:56.695Z,30.40
2022-12-15T08:02:27.897Z,28.27
2022-12-15T08:08:00.791Z,35.50
2022-12-15T08:10:28.490Z,26.20
2022-12-15T08:12:55.852Z,24.88
2022-12-15T08:15:23.448Z,25.98
2022-12-15T08:17:50.831Z,27.35
2022-12-15T08:20:18.486Z,30.63
2022-12-15T08:22:45.910Z,21.67
2022-12-15T08:25:13.544Z,27.05
2022-12-15T08:27:40.851Z,23.95
2022-12-15T08:30:08.842Z,30.30
2022-12-15T08:32:36.208Z,27.35
2022-12-15T08:35:03.889Z,25.95
2022-12-15T08:37:31.238Z,28.98
2022-12-15T08:39:58.832Z,24.60
2022-12-15T08:42:26.161Z,29.08
2022-12-15T08:44:53.801Z,27.02
2022-12-15T08:47:21.208Z,27.77
2022-12-15T08:49:48.780Z,31.40
2022-12-15T08:52:16.245Z,28.42
2022-12-15T08:54:43.871Z,23.75
2022-12-15T08:57:11.306Z,24.58
2022-12-15T08:59:38.911Z,24.15
2022-12-15T09:02:06.864Z,31.02
2022-12-15T09:04:34.747Z,26.35
2022-12-15T09:07:02.449Z,23.95
2022-12-15T09:09:30.114Z,25.27
2022-12-15T09:11:57.590Z,23.25
2022-12-15T09:14:29.036Z,25.13
2022-12-15T09:16:57.188Z,24.92
2022-12-15T09:19:24.897Z,24.48
2022-12-15T09:21:52.242Z,23.88
2022-12-15T09:24:32.221Z,23.15
2022-12-15T09:27:02.026Z,20.05
2022-12-15T09:29:29.658Z,21.63
2022-12-15T09:31:57.049Z,22.98
2022-12-15T09:34:24.671Z,23.27
2022-12-15T09:36:52.120Z,25.02
2022-12-15T09:39:19.717Z,21.45
2022-12-15T09:41:52.743Z,22.38
2022-12-15T09:44:21.432Z,21.65
2022-12-15T09:46:50.202Z,19.88
2022-12-15T09:49:56.782Z,17.40
2022-12-15T09:52:26.635Z,19.88
2022-12-15T09:54:55.097Z,21.70
2022-12-15T09:57:25.230Z,22.33
2022-12-15T10:00:01.959Z,22.88
2022-12-15T10:02:49.885Z,24.08
2022-12-15T10:05:57.778Z,26.95
2022-12-15T10:08:22.720Z,20.50
2022-12-15T10:11:04.243Z,20.42
2022-12-15T10:13:57.669Z,22.80
2022-12-15T10:16:34.898Z,23.90
2022-12-15T10:19:12.655Z,21.35
2022-12-15T10:21:40.543Z,19.50
2022-12-15T10:24:12.279Z,19.90
2022-12-15T10:26:41.313Z,18.13
2022-12-15T10:29:14.451Z,18.63
2022-12-15T10:31:49.459Z,21.15
2022-12-15T10:37:50.174Z,17.58
2022-12-15T10:40:18.695Z,17.85
2022-12-15T10:42:50.458Z,19.42
2022-12-15T10:45:31.388Z,17.10
2022-12-15T10:47:59.262Z,16.80
2022-12-15T10:50:27.250Z,19.75
2022-12-15T10:52:54.972Z,20.98
2022-12-15T10:55:35.702Z,23.63
2022-12-15T10:58:04.610Z,23.38
2022-12-15T11:00:33.252Z,23.63
2022-12-15T11:03:00.979Z,23.92
2022-12-15T11:05:28.999Z,24.40
2022-12-15T11:08:13.230Z,23.55
2022-12-15T11:14:42.302Z,22.95
2022-12-15T11:17:14.110Z,22.70
2022-12-15T11:20:04.736Z,23.40
2022-12-15T11:22:32.471Z,26.15
2022-12-15T11:25:12.916Z,20.80
2022-12-15T11:27:43.028Z,26.63
2022-12-15T11:30:16.441Z,21.48
2022-12-15T11:32:45.739Z,21.63
2022-12-15T11:35:20.198Z,21.83
2022-12-15T11:38:00.335Z,21.85
2022-12-15T11:40:33.603Z,20.02
2022-12-15T11:43:01.601Z,21.45
2022-12-15T11:45:41.769Z,25.60
2022-12-15T11:48:13.898Z,23.17
2022-12-15T11:50:51.087Z,23.10
2022-12-15T11:53:39.142Z,23.15
2022-12-15T11:56:45.413Z,20.35
2022-12-15T11:59:25.295Z,22.02
2022-12-15T12:02:11.316Z,19.67
2022-12-15T12:04:41.802Z,17.55
2022-12-15T12:07:09.186Z,22.27
2022-12-15T12:09:40.659Z,21.80
2022-12-15T12:12:14.296Z,24.52
2022-12-15T12:21:42.798Z,21.63
2022-12-15T12:24:16.299Z,28.08
2022-12-15T12:26:46.012Z,21.08
2022-12-15T12:29:22.973Z,24.65
2022-12-15T12:32:00.425Z,24.52
2022-12-15T12:34:31.660Z,23.38
2022-12-15T12:37:13.380Z,23.35
2022-12-15T12:39:41.538Z,22.77
2022-12-15T12:42:18.013Z,24.20
2022-12-15T12:44:45.841Z,22.58
2022-12-15T12:47:26.088Z,24.17
2022-12-15T12:49:58.771Z,29.83
2022-12-15T12:55:48.538Z,22.58
2022-12-15T12:58:31.325Z,27.83
2022-12-15T13:01:06.785Z,28.65
2022-12-15T13:03:38.455Z,29.38
2022-12-15T13:06:21.951Z,27.50
2022-12-15T13:08:51.693Z,27.42
2022-12-15T13:11:37.602Z,26.25
2022-12-15T13:14:14.265Z,24.20
2022-12-15T13:17:16.833Z,27.25
2022-12-15T13:19:53.843Z,25.83
2022-12-15T13:22:32.798Z,24.85
2022-12-15T13:25:00.488Z,25.98
2022-12-15T13:27:37.614Z,29.75
2022-12-15T13:30:08.091Z,27.63
2022-12-15T13:32:36.653Z,22.02
2022-12-15T13:35:13.163Z,27.00
2022-12-15T13:37:46.282Z,21.13
2022-12-15T13:40:22.639Z,24.85
2022-12-15T13:43:00.285Z,26.92
2022-12-15T13:53:18.935Z,27.67
2022-12-15T13:56:13.470Z,28.63
2022-12-15T13:58:46.476Z,29.80
2022-12-15T14:01:21.480Z,32.05
2022-12-15T14:04:07.027Z,33.97
2022-12-15T14:09:56.425Z,27.42
2022-12-15T14:15:50.950Z,31.83
2022-12-15T14:18:22.872Z,37.33
2022-12-15T14:20:50.188Z,38.20
2022-12-15T14:23:29.596Z,38.05
2022-12-15T14:26:05.380Z,37.38
2022-12-15T14:28:34.505Z,37.88
2022-12-15T14:31:12.576Z,40.15
2022-12-15T14:33:41.990Z,41.55
2022-12-15T14:36:10.823Z,46.08
2022-12-15T14:39:04.489Z,46.17
2022-12-15T14:41:33.260Z,46.70
2022-12-15T14:47:35.093Z,42.60
2022-12-15T14:53:25.622Z,45.35
2022-12-15T14:55:53.253Z,48.13
2022-12-15T14:58:24.686Z,41.42
2022-12-15T15:00:56.526Z,48.53
2022-12-15T15:03:40.303Z,53.35
2022-12-15T15:06:10.833Z,52.72
2022-12-15T15:08:49.116Z,46.90
2022-12-15T15:11:17.398Z,44.83
2022-12-15T15:13:45.201Z,62.70
2022-12-15T15:16:17.248Z,75.60
2022-12-15T15:18:48.162Z,61.25
2022-12-15T15:21:20.295Z,69.57
2022-12-15T15:27:32.127Z,62.97
2022-12-15T15:30:16.546Z,59.53
2022-12-15T15:32:51.163Z,65.78
2022-12-15T15:35:19.024Z,61.95
2022-12-15T15:37:46.478Z,60.22
2022-12-15T15:40:16.293Z,63.17
2022-12-15T15:42:46.560Z,69.45
2022-12-15T15:45:14.614Z,65.55
2022-12-15T15:47:46.248Z,71.93
2022-12-15T15:50:15.397Z,62.22
2022-12-15T15:52:43.232Z,69.88
2022-12-15T15:55:19.682Z,71.57
2022-12-15T15:57:47.027Z,68.60
2022-12-15T16:00:18.664Z,72.70
2022-12-15T16:02:46.177Z,98.28
2022-12-15T16:08:37.841Z,84.25
2022-12-15T16:11:05.911Z,120.97
2022-12-15T16:13:33.270Z,96.25
2022-12-15T16:16:01.043Z,114.35
2022-12-15T16:18:28.438Z,156.15
2022-12-15T16:20:56.225Z,117.82
2022-12-15T16:23:26.425Z,101.45
2022-12-15T16:25:55.261Z,105.43
2022-12-15T16:28:23.820Z,111.53
2022-12-15T16:30:52.193Z,114.13
2022-12-15T16:33:19.652Z,99.95
2022-12-15T16:35:47.355Z,111.82
2022-12-15T16:38:28.369Z,107.00
2022-12-15T16:41:04.270Z,99.68
2022-12-15T16:43:36.755Z,107.35
2022-12-15T16:46:07.262Z,104.90
2022-12-15T16:48:35.232Z,106.95
2022-12-15T16:51:06.029Z,105.53
2022-12-15T16:53:35.979Z,102.68
2022-12-15T16:56:05.269Z,106.28
2022-12-15T16:58:34.751Z,95.93
2022-12-15T17:01:03.116Z,114.63
2022-12-15T17:03:30.824Z,101.45
2022-12-15T17:06:00.646Z,113.43
2022-12-15T17:08:48.327Z,104.13
2022-12-15T17:11:20.714Z,104.28
2022-12-15T17:13:49.020Z,109.93
2022-12-15T17:16:21.035Z,103.47
2022-12-15T17:18:48.748Z,105.03
2022-12-15T17:21:20.900Z,114.63
2022-12-15T17:23:50.132Z,127.00
2022-12-15T17:26:28.093Z,194.98
2022-12-15T17:28:58.610Z,211.95
2022-12-15T17:31:30.263Z,141.00
2022-12-15T17:34:14.925Z,147.65
2022-12-15T17:36:42.513Z,152.80
2022-12-15T17:39:10.430Z,157.40
2022-12-15T17:44:35.671Z,144.88
2022-12-15T17:47:05.602Z,134.48
2022-12-15T17:49:36.672Z,138.30
2022-12-15T17:52:23.237Z,152.40
2022-12-15T17:54:51.298Z,124.68
2022-12-15T17:57:19.081Z,175.00
2022-12-15T17:59:46.520Z,167.63
2022-12-15T18:02:14.538Z,147.40
2022-12-15T18:04:42.880Z,148.02
2022-12-15T18:07:16.462Z,174.88
2022-12-15T18:09:44.260Z,187.43
2022-12-15T18:12:19.231Z,190.85
2022-12-15T18:14:46.755Z,183.38
2022-12-15T18:17:15.161Z,174.43
2022-12-15T18:19:42.643Z,188.10
2022-12-15T18:22:19.604Z,185.63
2022-12-15T18:24:47.025Z,181.90
2022-12-15T18:27:22.252Z,155.30
2022-12-15T18:29:49.769Z,154.90
2022-12-15T18:32:18.063Z,153.45
2022-12-15T18:34:45.673Z,142.40
2022-12-15T18:37:17.352Z,147.35
2022-12-15T18:39:44.910Z,150.25
2022-12-15T18:42:14.561Z,153.40
2022-12-15T18:44:48.082Z,149.32
2022-12-15T18:47:16.814Z,145.15
2022-12-15T18:49:44.516Z,145.60
2022-12-15T18:52:19.317Z,148.73
2022-12-15T18:54:47.356Z,142.00
2022-12-15T18:57:28.912Z,158.57
2022-12-15T18:59:59.834Z,156.07
2022-12-15T19:02:27.663Z,157.82
2022-12-15T19:04:55.213Z,169.70
2022-12-15T19:07:22.937Z,152.18
2022-12-15T19:09:52.816Z,141.38
2022-12-15T19:12:20.489Z,146.25
2022-12-15T19:14:50.628Z,137.90
2022-12-15T19:17:19.276Z,140.68
2022-12-15T19:19:46.685Z,327.02
2022-12-15T19:22:17.117Z,298.20
2022-12-15T19:24:44.568Z,197.38
2022-12-15T19:27:13.578Z,225.48
2022-12-15T19:29:41.370Z,258.92
2022-12-15T19:32:11.022Z,281.17
2022-12-15T19:34:38.404Z,199.45
2022-12-15T19:37:07.571Z,207.38
2022-12-15T19:39:35.071Z,165.90
2022-12-15T19:42:11.613Z,199.02
2022-12-15T19:51:33.226Z,151.35
2022-12-15T19:54:01.044Z,132.45
2022-12-15T19:56:28.850Z,122.38
2022-12-15T19:58:56.530Z,148.15
2022-12-15T20:01:24.354Z,144.82
2022-12-15T20:03:52.353Z,129.75
2022-12-15T20:06:21.202Z,129.65
2022-12-15T20:08:50.855Z,124.90
2022-12-15T20:11:20.473Z,142.05
2022-12-15T20:13:48.635Z,148.60
2022-12-15T20:16:19.194Z,138.88
2022-12-15T20:18:47.729Z,153.07
2022-12-15T20:24:37.161Z,139.07
2022-12-15T20:27:11.658Z,144.50
2022-12-15T20:29:39.442Z,145.82
2022-12-15T20:32:13.586Z,147.25
2022-12-15T20:34:41.006Z,149.18
2022-12-15T20:37:17.279Z,144.55
2022-12-15T20:39:44.675Z,139.10
2022-12-15T20:42:17.301Z,149.07
2022-12-15T20:44:44.757Z,155.60
2022-12-15T20:47:22.648Z,131.50
2022-12-15T20:49:50.564Z,150.70
2022-12-15T20:52:23.881Z,135.65
2022-12-15T20:54:52.118Z,135.63
2022-12-15T20:57:20.223Z,139.07
2022-12-15T20:59:47.713Z,164.25
2022-12-15T21:02:19.477Z,163.68
2022-12-15T21:04:46.985Z,161.23
2022-12-15T21:07:14.576Z,169.52
2022-12-15T21:09:41.941Z,150.15
2022-12-15T21:12:17.879Z,137.93
2022-12-15T21:14:45.288Z,160.20
2022-12-15T21:17:14.643Z,157.60
2022-12-15T21:19:42.134Z,144.27
2022-12-15T21:22:30.009Z,151.93
2022-12-15T21:24:57.625Z,147.18
2022-12-15T21:27:25.254Z,142.70
2022-12-15T21:29:53.238Z,149.70
2022-12-15T21:32:21.062Z,151.70
2022-12-15T21:34:48.443Z,151.38
2022-12-15T21:37:25.451Z,158.07
2022-12-15T21:39:53.089Z,143.73
2022-12-15T21:42:21.727Z,142.57
2022-12-15T21:44:49.083Z,145.02
2022-12-15T21:47:23.907Z,138.75
2022-12-15T21:49:52.038Z,133.73
2022-12-15T21:52:26.870Z,127.40
2022-12-15T21:54:54.182Z,119.80
2022-12-15T21:57:22.505Z,133.02
2022-12-15T21:59:49.858Z,120.10
2022-12-15T22:02:24.040Z,131.93
2022-12-15T22:08:23.809Z,125.18
2022-12-15T22:10:51.901Z,123.72
2022-12-15T22:13:21.136Z,121.88
2022-12-15T22:15:49.388Z,118.10
2022-12-15T22:18:19.019Z,120.07
2022-12-15T22:20:47.564Z,115.05
2022-12-15T22:23:15.522Z,121.50
2022-12-15T22:25:43.473Z,134.38
2022-12-15T22:28:21.343Z,119.78
2022-12-15T22:30:50.097Z,124.78
2022-12-15T22:33:20.725Z,120.60
2022-12-15T22:35:49.547Z,114.40
2022-12-15T22:38:17.555Z,113.35
2022-12-15T22:40:47.132Z,115.32
2022-12-15T22:43:22.818Z,117.40
2022-12-15T22:45:52.144Z,119.70
2022-12-15T22:48:20.661Z,114.22
2022-12-15T22:50:48.304Z,112.80
2022-12-15T22:53:16.539Z,111.45
2022-12-15T22:55:45.529Z,118.68
2022-12-15T22:58:15.564Z,113.38
2022-12-15T23:00:43.553Z,115.47
2022-12-15T23:03:11.532Z,118.97
2022-12-15T23:05:40.345Z,114.75
2022-12-15T23:08:07.901Z,111.15
2022-12-15T23:10:35.543Z,112.30
2022-12-15T23:13:03.041Z,115.72
2022-12-15T23:15:31.442Z,122.47
2022-12-15T23:17:58.791Z,105.43
2022-12-15T23:20:26.430Z,123.03
2022-12-15T23:22:53.748Z,118.78
2022-12-15T23:25:22.502Z,122.78
2022-12-15T23:27:49.902Z,117.82
2022-12-15T23:30:18.336Z,114.90
2022-12-15T23:32:45.796Z,113.18
2022-12-15T23:35:13.460Z,119.20
2022-12-15T23:37:40.812Z,111.97
2022-12-15T23:40:08.628Z,108.25
2022-12-15T23:42:35.953Z,114.65
2022-12-15T23:45:03.946Z,115.55
2022-12-15T23:47:31.505Z,107.70
2022-12-15T23:49:59.238Z,116.55
2022-12-15T23:52:27.219Z,127.40
2022-12-15T23:54:54.858Z,118.10
2022-12-15T23:57:22.713Z,114.70
2022-12-15T23:59:50.377Z,113.00
